sensor_id;sensor_type;location;lat;lon;timestamp;P1;P2;P0
77699;PMS5003;66867;42.658;23.320;2023-05-07T00:00:00;32;31;
77699;PMS5003;66867;42.658;23.320;2023-05-07T00:01:00;38;35;
77699;PMS5003;66867;42.658;23.320;2023-05-07T00:02:00;39;35;
77699;PMS5003;66867;42.658;23.320;2023-05-07T00:03:00;43;38;
77699;PMS5003;66867;42.658;23.320;2023-05-07T00:04:00;46;38;
77699;PMS5003;66867;42.658;23.320;2023-05-07T00:05:01;42;38;
77699;PMS5003;66867;42.658;23.320;2023-05-07T00:06:00;44;38;
77699;PMS5003;66867;42.658;23.320;2023-05-07T00:07:00;42;37;
77699;PMS5003;66867;42.658;23.320;2023-05-07T00:08:00;48;41;
77699;PMS5003;66867;42.658;23.320;2023-05-07T00:09:00;42;38;
77699;PMS5003;66867;42.658;23.320;2023-05-07T00:10:00;45;39;
77699;PMS5003;66867;42.658;23.320;2023-05-07T00:11:00;45;38;
77699;PMS5003;66867;42.658;23.320;2023-05-07T00:12:00;45;40;
77699;PMS5003;66867;42.658;23.320;2023-05-07T00:13:00;41;36;
77699;PMS5003;66867;42.658;23.320;2023-05-07T00:14:00;44;38;
77699;PMS5003;66867;42.658;23.320;2023-05-07T00:15:02;45;39;
77699;PMS5003;66867;42.658;23.320;2023-05-07T00:16:01;41;37;
77699;PMS5003;66867;42.658;23.320;2023-05-07T00:17:00;38;35;
77699;PMS5003;66867;42.658;23.320;2023-05-07T00:18:00;48;40;
77699;PMS5003;66867;42.658;23.320;2023-05-07T00:19:00;41;37;
77699;PMS5003;66867;42.658;23.320;2023-05-07T00:20:00;41;37;
77699;PMS5003;66867;42.658;23.320;2023-05-07T00:21:00;41;37;
77699;PMS5003;66867;42.658;23.320;2023-05-07T00:22:00;42;37;
77699;PMS5003;66867;42.658;23.320;2023-05-07T00:23:00;40;36;
77699;PMS5003;66867;42.658;23.320;2023-05-07T00:24:00;47;38;
77699;PMS5003;66867;42.658;23.320;2023-05-07T00:25:00;42;38;
77699;PMS5003;66867;42.658;23.320;2023-05-07T00:26:00;44;38;
77699;PMS5003;66867;42.658;23.320;2023-05-07T00:27:00;41;37;
77699;PMS5003;66867;42.658;23.320;2023-05-07T00:28:00;41;37;
77699;PMS5003;66867;42.658;23.320;2023-05-07T00:29:00;44;37;
77699;PMS5003;66867;42.658;23.320;2023-05-07T00:30:00;42;38;
77699;PMS5003;66867;42.658;23.320;2023-05-07T00:31:00;43;38;
77699;PMS5003;66867;42.658;23.320;2023-05-07T00:32:00;40;37;
77699;PMS5003;66867;42.658;23.320;2023-05-07T00:33:00;43;38;
77699;PMS5003;66867;42.658;23.320;2023-05-07T00:34:00;41;37;
77699;PMS5003;66867;42.658;23.320;2023-05-07T00:35:00;38;35;
77699;PMS5003;66867;42.658;23.320;2023-05-07T00:36:00;44;38;
77699;PMS5003;66867;42.658;23.320;2023-05-07T00:37:01;38;35;
77699;PMS5003;66867;42.658;23.320;2023-05-07T00:38:00;42;37;
77699;PMS5003;66867;42.658;23.320;2023-05-07T00:39:00;42;37;
77699;PMS5003;66867;42.658;23.320;2023-05-07T00:40:00;46;39;
77699;PMS5003;66867;42.658;23.320;2023-05-07T00:41:00;45;38;
77699;PMS5003;66867;42.658;23.320;2023-05-07T00:42:00;38;35;
77699;PMS5003;66867;42.658;23.320;2023-05-07T00:43:00;36;33;
77699;PMS5003;66867;42.658;23.320;2023-05-07T00:44:00;45;38;
77699;PMS5003;66867;42.658;23.320;2023-05-07T00:45:00;39;36;
77699;PMS5003;66867;42.658;23.320;2023-05-07T00:46:00;42;37;
77699;PMS5003;66867;42.658;23.320;2023-05-07T00:47:02;46;39;
77699;PMS5003;66867;42.658;23.320;2023-05-07T00:48:01;39;36;
77699;PMS5003;66867;42.658;23.320;2023-05-07T00:49:00;43;37;
77699;PMS5003;66867;42.658;23.320;2023-05-07T00:50:00;42;37;
77699;PMS5003;66867;42.658;23.320;2023-05-07T00:51:00;45;38;
77699;PMS5003;66867;42.658;23.320;2023-05-07T00:52:00;41;37;
77699;PMS5003;66867;42.658;23.320;2023-05-07T00:53:00;44;38;
77699;PMS5003;66867;42.658;23.320;2023-05-07T00:54:02;44;38;
77699;PMS5003;66867;42.658;23.320;2023-05-07T00:55:04;35;34;
77699;PMS5003;66867;42.658;23.320;2023-05-07T00:56:00;36;34;
77699;PMS5003;66867;42.658;23.320;2023-05-07T00:57:01;42;37;
77699;PMS5003;66867;42.658;23.320;2023-05-07T00:58:00;37;35;
77699;PMS5003;66867;42.658;23.320;2023-05-07T00:59:02;40;35;
77699;PMS5003;66867;42.658;23.320;2023-05-07T01:00:00;41;36;
77699;PMS5003;66867;42.658;23.320;2023-05-07T01:01:00;43;37;
77699;PMS5003;66867;42.658;23.320;2023-05-07T01:02:00;38;35;
77699;PMS5003;66867;42.658;23.320;2023-05-07T01:03:00;43;39;
77699;PMS5003;66867;42.658;23.320;2023-05-07T01:04:00;41;37;
77699;PMS5003;66867;42.658;23.320;2023-05-07T01:05:01;43;37;
77699;PMS5003;66867;42.658;23.320;2023-05-07T01:06:01;42;36;
77699;PMS5003;66867;42.658;23.320;2023-05-07T01:07:01;37;34;
77699;PMS5003;66867;42.658;23.320;2023-05-07T01:08:01;41;36;
77699;PMS5003;66867;42.658;23.320;2023-05-07T01:09:00;40;35;
77699;PMS5003;66867;42.658;23.320;2023-05-07T01:10:00;38;35;
77699;PMS5003;66867;42.658;23.320;2023-05-07T01:11:00;43;39;
77699;PMS5003;66867;42.658;23.320;2023-05-07T01:12:00;38;36;
77699;PMS5003;66867;42.658;23.320;2023-05-07T01:13:00;43;37;
77699;PMS5003;66867;42.658;23.320;2023-05-07T01:14:00;43;38;
77699;PMS5003;66867;42.658;23.320;2023-05-07T01:15:00;42;36;
77699;PMS5003;66867;42.658;23.320;2023-05-07T01:16:00;41;36;
77699;PMS5003;66867;42.658;23.320;2023-05-07T01:17:00;39;34;
77699;PMS5003;66867;42.658;23.320;2023-05-07T01:18:00;41;36;
77699;PMS5003;66867;42.658;23.320;2023-05-07T01:19:00;42;38;
77699;PMS5003;66867;42.658;23.320;2023-05-07T01:20:00;36;34;
77699;PMS5003;66867;42.658;23.320;2023-05-07T01:21:01;47;40;
77699;PMS5003;66867;42.658;23.320;2023-05-07T01:22:03;40;34;
77699;PMS5003;66867;42.658;23.320;2023-05-07T01:23:00;43;39;
77699;PMS5003;66867;42.658;23.320;2023-05-07T01:24:00;46;39;
77699;PMS5003;66867;42.658;23.320;2023-05-07T01:25:00;42;36;
77699;PMS5003;66867;42.658;23.320;2023-05-07T01:26:00;40;36;
77699;PMS5003;66867;42.658;23.320;2023-05-07T01:27:00;47;39;
77699;PMS5003;66867;42.658;23.320;2023-05-07T01:28:00;40;35;
77699;PMS5003;66867;42.658;23.320;2023-05-07T01:29:00;44;39;
77699;PMS5003;66867;42.658;23.320;2023-05-07T01:30:00;45;38;
77699;PMS5003;66867;42.658;23.320;2023-05-07T01:31:02;44;39;
77699;PMS5003;66867;42.658;23.320;2023-05-07T01:32:01;44;39;
77699;PMS5003;66867;42.658;23.320;2023-05-07T01:33:07;43;37;
77699;PMS5003;66867;42.658;23.320;2023-05-07T01:34:01;40;37;
77699;PMS5003;66867;42.658;23.320;2023-05-07T01:35:01;40;37;
77699;PMS5003;66867;42.658;23.320;2023-05-07T01:36:01;49;39;
77699;PMS5003;66867;42.658;23.320;2023-05-07T01:37:00;45;39;
77699;PMS5003;66867;42.658;23.320;2023-05-07T01:38:00;39;36;
77699;PMS5003;66867;42.658;23.320;2023-05-07T01:39:01;40;36;
77699;PMS5003;66867;42.658;23.320;2023-05-07T01:40:01;41;38;
77699;PMS5003;66867;42.658;23.320;2023-05-07T01:41:01;41;37;
77699;PMS5003;66867;42.658;23.320;2023-05-07T01:42:00;43;38;
77699;PMS5003;66867;42.658;23.320;2023-05-07T01:43:02;39;36;
77699;PMS5003;66867;42.658;23.320;2023-05-07T01:44:01;37;34;
77699;PMS5003;66867;42.658;23.320;2023-05-07T01:45:00;37;35;
77699;PMS5003;66867;42.658;23.320;2023-05-07T01:46:01;34;33;
77699;PMS5003;66867;42.658;23.320;2023-05-07T01:47:01;42;38;
77699;PMS5003;66867;42.658;23.320;2023-05-07T01:48:01;37;33;
77699;PMS5003;66867;42.658;23.320;2023-05-07T01:49:00;40;36;
77699;PMS5003;66867;42.658;23.320;2023-05-07T01:50:00;41;38;
77699;PMS5003;66867;42.658;23.320;2023-05-07T01:51:01;42;38;
77699;PMS5003;66867;42.658;23.320;2023-05-07T01:52:00;40;36;
77699;PMS5003;66867;42.658;23.320;2023-05-07T01:53:01;38;35;
77699;PMS5003;66867;42.658;23.320;2023-05-07T01:54:00;36;32;
77699;PMS5003;66867;42.658;23.320;2023-05-07T01:55:00;37;33;
77699;PMS5003;66867;42.658;23.320;2023-05-07T01:56:00;39;36;
77699;PMS5003;66867;42.658;23.320;2023-05-07T01:57:00;41;36;
77699;PMS5003;66867;42.658;23.320;2023-05-07T01:58:00;38;36;
77699;PMS5003;66867;42.658;23.320;2023-05-07T01:59:00;35;32;
77699;PMS5003;66867;42.658;23.320;2023-05-07T02:00:00;34;33;
77699;PMS5003;66867;42.658;23.320;2023-05-07T02:01:00;40;35;
77699;PMS5003;66867;42.658;23.320;2023-05-07T02:02:00;32;32;
77699;PMS5003;66867;42.658;23.320;2023-05-07T02:03:00;33;32;
77699;PMS5003;66867;42.658;23.320;2023-05-07T02:04:00;33;32;
77699;PMS5003;66867;42.658;23.320;2023-05-07T02:05:01;30;30;
77699;PMS5003;66867;42.658;23.320;2023-05-07T02:06:00;31;31;
77699;PMS5003;66867;42.658;23.320;2023-05-07T02:07:00;29;29;
77699;PMS5003;66867;42.658;23.320;2023-05-07T02:08:00;31;31;
77699;PMS5003;66867;42.658;23.320;2023-05-07T02:09:00;30;30;
77699;PMS5003;66867;42.658;23.320;2023-05-07T02:10:00;33;32;
77699;PMS5003;66867;42.658;23.320;2023-05-07T02:11:00;29;29;
77699;PMS5003;66867;42.658;23.320;2023-05-07T02:12:00;33;32;
77699;PMS5003;66867;42.658;23.320;2023-05-07T02:13:00;37;34;
77699;PMS5003;66867;42.658;23.320;2023-05-07T02:14:00;31;30;
77699;PMS5003;66867;42.658;23.320;2023-05-07T02:15:00;33;32;
77699;PMS5003;66867;42.658;23.320;2023-05-07T02:16:00;34;33;
77699;PMS5003;66867;42.658;23.320;2023-05-07T02:17:00;37;34;
77699;PMS5003;66867;42.658;23.320;2023-05-07T02:18:03;30;29;
77699;PMS5003;66867;42.658;23.320;2023-05-07T02:19:00;35;31;
77699;PMS5003;66867;42.658;23.320;2023-05-07T02:20:00;33;32;
77699;PMS5003;66867;42.658;23.320;2023-05-07T02:21:00;33;31;
77699;PMS5003;66867;42.658;23.320;2023-05-07T02:22:00;29;29;
77699;PMS5003;66867;42.658;23.320;2023-05-07T02:23:00;33;32;
77699;PMS5003;66867;42.658;23.320;2023-05-07T02:24:00;38;34;
77699;PMS5003;66867;42.658;23.320;2023-05-07T02:25:00;33;32;
77699;PMS5003;66867;42.658;23.320;2023-05-07T02:26:00;32;31;
77699;PMS5003;66867;42.658;23.320;2023-05-07T02:27:00;39;34;
77699;PMS5003;66867;42.658;23.320;2023-05-07T02:28:00;31;31;
77699;PMS5003;66867;42.658;23.320;2023-05-07T02:29:00;32;32;
77699;PMS5003;66867;42.658;23.320;2023-05-07T02:30:00;32;32;
77699;PMS5003;66867;42.658;23.320;2023-05-07T02:31:02;32;31;
77699;PMS5003;66867;42.658;23.320;2023-05-07T02:32:00;37;34;
77699;PMS5003;66867;42.658;23.320;2023-05-07T02:33:00;36;32;
77699;PMS5003;66867;42.658;23.320;2023-05-07T02:34:00;30;30;
77699;PMS5003;66867;42.658;23.320;2023-05-07T02:35:00;33;32;
77699;PMS5003;66867;42.658;23.320;2023-05-07T02:36:05;37;34;
77699;PMS5003;66867;42.658;23.320;2023-05-07T02:37:00;31;31;
77699;PMS5003;66867;42.658;23.320;2023-05-07T02:38:00;31;30;
77699;PMS5003;66867;42.658;23.320;2023-05-07T02:39:00;34;33;
77699;PMS5003;66867;42.658;23.320;2023-05-07T02:40:00;36;32;
77699;PMS5003;66867;42.658;23.320;2023-05-07T02:41:00;40;36;
77699;PMS5003;66867;42.658;23.320;2023-05-07T02:42:00;31;31;
77699;PMS5003;66867;42.658;23.320;2023-05-07T02:43:00;36;35;
77699;PMS5003;66867;42.658;23.320;2023-05-07T02:44:00;39;36;
77699;PMS5003;66867;42.658;23.320;2023-05-07T02:45:00;37;34;
77699;PMS5003;66867;42.658;23.320;2023-05-07T02:46:01;38;36;
77699;PMS5003;66867;42.658;23.320;2023-05-07T02:47:00;35;33;
77699;PMS5003;66867;42.658;23.320;2023-05-07T02:48:00;39;36;
77699;PMS5003;66867;42.658;23.320;2023-05-07T02:49:00;33;32;
77699;PMS5003;66867;42.658;23.320;2023-05-07T02:50:00;42;36;
77699;PMS5003;66867;42.658;23.320;2023-05-07T02:51:01;37;35;
77699;PMS5003;66867;42.658;23.320;2023-05-07T02:52:00;36;35;
77699;PMS5003;66867;42.658;23.320;2023-05-07T02:53:00;38;32;
77699;PMS5003;66867;42.658;23.320;2023-05-07T02:54:00;41;38;
77699;PMS5003;66867;42.658;23.320;2023-05-07T02:55:00;37;33;
77699;PMS5003;66867;42.658;23.320;2023-05-07T02:56:01;37;34;
77699;PMS5003;66867;42.658;23.320;2023-05-07T02:57:00;37;33;
77699;PMS5003;66867;42.658;23.320;2023-05-07T02:58:00;36;32;
77699;PMS5003;66867;42.658;23.320;2023-05-07T02:59:00;35;32;
77699;PMS5003;66867;42.658;23.320;2023-05-07T03:00:10;38;35;
77699;PMS5003;66867;42.658;23.320;2023-05-07T03:01:00;36;35;
77699;PMS5003;66867;42.658;23.320;2023-05-07T03:02:00;36;33;
77699;PMS5003;66867;42.658;23.320;2023-05-07T03:03:00;38;35;
77699;PMS5003;66867;42.658;23.320;2023-05-07T03:04:00;34;30;
77699;PMS5003;66867;42.658;23.320;2023-05-07T03:05:00;39;36;
77699;PMS5003;66867;42.658;23.320;2023-05-07T03:06:00;39;36;
77699;PMS5003;66867;42.658;23.320;2023-05-07T03:07:00;36;33;
77699;PMS5003;66867;42.658;23.320;2023-05-07T03:08:00;37;35;
77699;PMS5003;66867;42.658;23.320;2023-05-07T03:09:00;38;36;
77699;PMS5003;66867;42.658;23.320;2023-05-07T03:10:00;33;32;
77699;PMS5003;66867;42.658;23.320;2023-05-07T03:11:00;37;35;
77699;PMS5003;66867;42.658;23.320;2023-05-07T03:12:00;35;32;
77699;PMS5003;66867;42.658;23.320;2023-05-07T03:13:00;37;35;
77699;PMS5003;66867;42.658;23.320;2023-05-07T03:14:00;38;36;
77699;PMS5003;66867;42.658;23.320;2023-05-07T03:15:00;35;33;
77699;PMS5003;66867;42.658;23.320;2023-05-07T03:16:00;37;35;
77699;PMS5003;66867;42.658;23.320;2023-05-07T03:17:00;38;35;
77699;PMS5003;66867;42.658;23.320;2023-05-07T03:18:00;38;35;
77699;PMS5003;66867;42.658;23.320;2023-05-07T03:19:00;36;32;
77699;PMS5003;66867;42.658;23.320;2023-05-07T03:20:00;40;36;
77699;PMS5003;66867;42.658;23.320;2023-05-07T03:21:00;42;37;
77699;PMS5003;66867;42.658;23.320;2023-05-07T03:22:00;40;36;
77699;PMS5003;66867;42.658;23.320;2023-05-07T03:23:00;42;38;
77699;PMS5003;66867;42.658;23.320;2023-05-07T03:24:00;36;34;
77699;PMS5003;66867;42.658;23.320;2023-05-07T03:25:00;44;38;
77699;PMS5003;66867;42.658;23.320;2023-05-07T03:26:00;45;39;
77699;PMS5003;66867;42.658;23.320;2023-05-07T03:27:00;40;36;
77699;PMS5003;66867;42.658;23.320;2023-05-07T03:28:00;37;34;
77699;PMS5003;66867;42.658;23.320;2023-05-07T03:29:00;41;36;
77699;PMS5003;66867;42.658;23.320;2023-05-07T03:30:00;39;36;
77699;PMS5003;66867;42.658;23.320;2023-05-07T03:31:00;38;35;
77699;PMS5003;66867;42.658;23.320;2023-05-07T03:32:00;32;31;
77699;PMS5003;66867;42.658;23.320;2023-05-07T03:33:00;38;35;
77699;PMS5003;66867;42.658;23.320;2023-05-07T03:34:00;37;35;
77699;PMS5003;66867;42.658;23.320;2023-05-07T03:35:02;35;33;
77699;PMS5003;66867;42.658;23.320;2023-05-07T03:36:01;36;35;
77699;PMS5003;66867;42.658;23.320;2023-05-07T03:37:00;40;36;
77699;PMS5003;66867;42.658;23.320;2023-05-07T03:38:00;40;36;
77699;PMS5003;66867;42.658;23.320;2023-05-07T03:39:00;36;34;
77699;PMS5003;66867;42.658;23.320;2023-05-07T03:40:00;39;36;
77699;PMS5003;66867;42.658;23.320;2023-05-07T03:41:00;36;35;
77699;PMS5003;66867;42.658;23.320;2023-05-07T03:42:00;37;34;
77699;PMS5003;66867;42.658;23.320;2023-05-07T03:43:00;38;36;
77699;PMS5003;66867;42.658;23.320;2023-05-07T03:44:00;40;35;
77699;PMS5003;66867;42.658;23.320;2023-05-07T03:45:00;37;35;
77699;PMS5003;66867;42.658;23.320;2023-05-07T03:46:00;38;35;
77699;PMS5003;66867;42.658;23.320;2023-05-07T03:47:00;34;32;
77699;PMS5003;66867;42.658;23.320;2023-05-07T03:48:00;37;35;
77699;PMS5003;66867;42.658;23.320;2023-05-07T03:49:00;35;34;
77699;PMS5003;66867;42.658;23.320;2023-05-07T03:50:00;39;36;
77699;PMS5003;66867;42.658;23.320;2023-05-07T03:51:00;39;36;
77699;PMS5003;66867;42.658;23.320;2023-05-07T03:52:00;36;35;
77699;PMS5003;66867;42.658;23.320;2023-05-07T03:53:00;40;36;
77699;PMS5003;66867;42.658;23.320;2023-05-07T03:54:00;37;34;
77699;PMS5003;66867;42.658;23.320;2023-05-07T03:55:00;31;31;
77699;PMS5003;66867;42.658;23.320;2023-05-07T03:56:00;34;32;
77699;PMS5003;66867;42.658;23.320;2023-05-07T03:57:00;40;36;
77699;PMS5003;66867;42.658;23.320;2023-05-07T03:58:00;40;37;
77699;PMS5003;66867;42.658;23.320;2023-05-07T03:59:00;40;36;
77699;PMS5003;66867;42.658;23.320;2023-05-07T04:00:00;37;34;
77699;PMS5003;66867;42.658;23.320;2023-05-07T04:01:00;44;37;
77699;PMS5003;66867;42.658;23.320;2023-05-07T04:02:00;35;32;
77699;PMS5003;66867;42.658;23.320;2023-05-07T04:03:00;37;35;
77699;PMS5003;66867;42.658;23.320;2023-05-07T04:04:00;37;35;
77699;PMS5003;66867;42.658;23.320;2023-05-07T04:05:00;37;35;
77699;PMS5003;66867;42.658;23.320;2023-05-07T04:06:00;32;32;
77699;PMS5003;66867;42.658;23.320;2023-05-07T04:07:00;42;37;
77699;PMS5003;66867;42.658;23.320;2023-05-07T04:08:00;37;35;
77699;PMS5003;66867;42.658;23.320;2023-05-07T04:09:00;43;39;
77699;PMS5003;66867;42.658;23.320;2023-05-07T04:10:00;39;36;
77699;PMS5003;66867;42.658;23.320;2023-05-07T04:11:01;33;32;
77699;PMS5003;66867;42.658;23.320;2023-05-07T04:12:00;38;35;
77699;PMS5003;66867;42.658;23.320;2023-05-07T04:13:00;39;36;
77699;PMS5003;66867;42.658;23.320;2023-05-07T04:14:00;39;36;
77699;PMS5003;66867;42.658;23.320;2023-05-07T04:15:00;35;32;
77699;PMS5003;66867;42.658;23.320;2023-05-07T04:16:02;40;37;
77699;PMS5003;66867;42.658;23.320;2023-05-07T04:17:00;36;32;
77699;PMS5003;66867;42.658;23.320;2023-05-07T04:18:00;40;35;
77699;PMS5003;66867;42.658;23.320;2023-05-07T04:19:00;35;33;
77699;PMS5003;66867;42.658;23.320;2023-05-07T04:20:00;39;36;
77699;PMS5003;66867;42.658;23.320;2023-05-07T04:21:00;38;36;
77699;PMS5003;66867;42.658;23.320;2023-05-07T04:22:00;37;34;
77699;PMS5003;66867;42.658;23.320;2023-05-07T04:23:00;38;35;
77699;PMS5003;66867;42.658;23.320;2023-05-07T04:24:02;38;35;
77699;PMS5003;66867;42.658;23.320;2023-05-07T04:25:00;46;39;
77699;PMS5003;66867;42.658;23.320;2023-05-07T04:26:00;40;36;
77699;PMS5003;66867;42.658;23.320;2023-05-07T04:27:00;38;35;
77699;PMS5003;66867;42.658;23.320;2023-05-07T04:28:00;44;40;
77699;PMS5003;66867;42.658;23.320;2023-05-07T04:29:00;42;38;
77699;PMS5003;66867;42.658;23.320;2023-05-07T04:30:00;44;38;
77699;PMS5003;66867;42.658;23.320;2023-05-07T04:31:00;42;37;
77699;PMS5003;66867;42.658;23.320;2023-05-07T04:32:00;37;34;
77699;PMS5003;66867;42.658;23.320;2023-05-07T04:33:00;39;36;
77699;PMS5003;66867;42.658;23.320;2023-05-07T04:34:00;43;38;
77699;PMS5003;66867;42.658;23.320;2023-05-07T04:35:00;34;33;
77699;PMS5003;66867;42.658;23.320;2023-05-07T04:36:02;42;38;
77699;PMS5003;66867;42.658;23.320;2023-05-07T04:37:00;39;35;
77699;PMS5003;66867;42.658;23.320;2023-05-07T04:38:00;39;36;
77699;PMS5003;66867;42.658;23.320;2023-05-07T04:39:02;43;39;
77699;PMS5003;66867;42.658;23.320;2023-05-07T04:40:00;41;37;
77699;PMS5003;66867;42.658;23.320;2023-05-07T04:41:04;46;40;
77699;PMS5003;66867;42.658;23.320;2023-05-07T04:42:00;42;37;
77699;PMS5003;66867;42.658;23.320;2023-05-07T04:43:00;39;35;
77699;PMS5003;66867;42.658;23.320;2023-05-07T04:44:00;39;35;
77699;PMS5003;66867;42.658;23.320;2023-05-07T04:45:01;39;35;
77699;PMS5003;66867;42.658;23.320;2023-05-07T04:46:00;35;34;
77699;PMS5003;66867;42.658;23.320;2023-05-07T04:47:00;39;35;
77699;PMS5003;66867;42.658;23.320;2023-05-07T04:48:00;45;39;
77699;PMS5003;66867;42.658;23.320;2023-05-07T04:49:00;46;41;
77699;PMS5003;66867;42.658;23.320;2023-05-07T04:50:00;40;35;
77699;PMS5003;66867;42.658;23.320;2023-05-07T04:51:00;41;35;
77699;PMS5003;66867;42.658;23.320;2023-05-07T04:52:00;44;38;
77699;PMS5003;66867;42.658;23.320;2023-05-07T04:53:00;39;35;
77699;PMS5003;66867;42.658;23.320;2023-05-07T04:54:00;43;37;
77699;PMS5003;66867;42.658;23.320;2023-05-07T04:55:00;38;35;
77699;PMS5003;66867;42.658;23.320;2023-05-07T04:56:00;44;38;
77699;PMS5003;66867;42.658;23.320;2023-05-07T04:57:00;44;35;
77699;PMS5003;66867;42.658;23.320;2023-05-07T04:58:00;42;36;
77699;PMS5003;66867;42.658;23.320;2023-05-07T04:59:00;46;40;
77699;PMS5003;66867;42.658;23.320;2023-05-07T05:00:00;46;41;
77699;PMS5003;66867;42.658;23.320;2023-05-07T05:01:00;45;38;
77699;PMS5003;66867;42.658;23.320;2023-05-07T05:02:00;43;37;
77699;PMS5003;66867;42.658;23.320;2023-05-07T05:03:00;43;37;
77699;PMS5003;66867;42.658;23.320;2023-05-07T05:04:00;44;38;
77699;PMS5003;66867;42.658;23.320;2023-05-07T05:05:00;42;37;
77699;PMS5003;66867;42.658;23.320;2023-05-07T05:06:00;47;39;
77699;PMS5003;66867;42.658;23.320;2023-05-07T05:07:00;41;36;
77699;PMS5003;66867;42.658;23.320;2023-05-07T05:08:00;43;37;
77699;PMS5003;66867;42.658;23.320;2023-05-07T05:09:00;43;37;
77699;PMS5003;66867;42.658;23.320;2023-05-07T05:10:01;41;37;
77699;PMS5003;66867;42.658;23.320;2023-05-07T05:11:01;42;37;
77699;PMS5003;66867;42.658;23.320;2023-05-07T05:12:00;73;61;
77699;PMS5003;66867;42.658;23.320;2023-05-07T05:13:00;67;54;
77699;PMS5003;66867;42.658;23.320;2023-05-07T05:14:00;54;46;
77699;PMS5003;66867;42.658;23.320;2023-05-07T05:15:00;53;44;
77699;PMS5003;66867;42.658;23.320;2023-05-07T05:16:00;50;42;
77699;PMS5003;66867;42.658;23.320;2023-05-07T05:17:00;45;38;
77699;PMS5003;66867;42.658;23.320;2023-05-07T05:18:00;48;38;
77699;PMS5003;66867;42.658;23.320;2023-05-07T05:19:01;38;35;
77699;PMS5003;66867;42.658;23.320;2023-05-07T05:20:00;37;34;
77699;PMS5003;66867;42.658;23.320;2023-05-07T05:21:00;40;35;
77699;PMS5003;66867;42.658;23.320;2023-05-07T05:22:00;38;35;
77699;PMS5003;66867;42.658;23.320;2023-05-07T05:23:00;38;35;
77699;PMS5003;66867;42.658;23.320;2023-05-07T05:24:00;38;35;
77699;PMS5003;66867;42.658;23.320;2023-05-07T05:25:00;37;35;
77699;PMS5003;66867;42.658;23.320;2023-05-07T05:26:00;39;35;
77699;PMS5003;66867;42.658;23.320;2023-05-07T05:27:00;46;40;
77699;PMS5003;66867;42.658;23.320;2023-05-07T05:28:00;42;38;
77699;PMS5003;66867;42.658;23.320;2023-05-07T05:29:00;39;35;
77699;PMS5003;66867;42.658;23.320;2023-05-07T05:30:00;43;37;
77699;PMS5003;66867;42.658;23.320;2023-05-07T05:31:00;36;33;
77699;PMS5003;66867;42.658;23.320;2023-05-07T05:32:00;43;36;
77699;PMS5003;66867;42.658;23.320;2023-05-07T05:33:00;40;36;
77699;PMS5003;66867;42.658;23.320;2023-05-07T05:34:00;41;37;
77699;PMS5003;66867;42.658;23.320;2023-05-07T05:35:00;45;37;
77699;PMS5003;66867;42.658;23.320;2023-05-07T05:36:00;39;36;
77699;PMS5003;66867;42.658;23.320;2023-05-07T05:37:00;35;33;
77699;PMS5003;66867;42.658;23.320;2023-05-07T05:38:00;39;35;
77699;PMS5003;66867;42.658;23.320;2023-05-07T05:39:00;43;37;
77699;PMS5003;66867;42.658;23.320;2023-05-07T05:40:00;36;33;
77699;PMS5003;66867;42.658;23.320;2023-05-07T05:41:00;41;37;
77699;PMS5003;66867;42.658;23.320;2023-05-07T05:42:00;37;33;
77699;PMS5003;66867;42.658;23.320;2023-05-07T05:43:00;38;34;
77699;PMS5003;66867;42.658;23.320;2023-05-07T05:44:00;37;33;
77699;PMS5003;66867;42.658;23.320;2023-05-07T05:45:00;38;33;
77699;PMS5003;66867;42.658;23.320;2023-05-07T05:46:00;37;33;
77699;PMS5003;66867;42.658;23.320;2023-05-07T05:47:00;33;31;
77699;PMS5003;66867;42.658;23.320;2023-05-07T05:48:00;34;33;
77699;PMS5003;66867;42.658;23.320;2023-05-07T05:49:00;34;32;
77699;PMS5003;66867;42.658;23.320;2023-05-07T05:50:00;36;33;
77699;PMS5003;66867;42.658;23.320;2023-05-07T05:51:00;38;34;
77699;PMS5003;66867;42.658;23.320;2023-05-07T05:52:00;36;33;
77699;PMS5003;66867;42.658;23.320;2023-05-07T05:53:00;34;33;
77699;PMS5003;66867;42.658;23.320;2023-05-07T05:54:00;31;31;
77699;PMS5003;66867;42.658;23.320;2023-05-07T05:55:00;39;35;
77699;PMS5003;66867;42.658;23.320;2023-05-07T05:56:00;35;33;
77699;PMS5003;66867;42.658;23.320;2023-05-07T05:57:00;34;32;
77699;PMS5003;66867;42.658;23.320;2023-05-07T05:58:00;38;34;
77699;PMS5003;66867;42.658;23.320;2023-05-07T05:59:00;33;32;
77699;PMS5003;66867;42.658;23.320;2023-05-07T06:00:01;35;33;
77699;PMS5003;66867;42.658;23.320;2023-05-07T06:01:00;35;33;
77699;PMS5003;66867;42.658;23.320;2023-05-07T06:02:00;32;31;
77699;PMS5003;66867;42.658;23.320;2023-05-07T06:03:00;31;30;
77699;PMS5003;66867;42.658;23.320;2023-05-07T06:04:00;33;31;
77699;PMS5003;66867;42.658;23.320;2023-05-07T06:05:00;33;32;
77699;PMS5003;66867;42.658;23.320;2023-05-07T06:06:00;39;35;
77699;PMS5003;66867;42.658;23.320;2023-05-07T06:07:00;30;30;
77699;PMS5003;66867;42.658;23.320;2023-05-07T06:08:00;33;29;
77699;PMS5003;66867;42.658;23.320;2023-05-07T06:09:00;38;35;
77699;PMS5003;66867;42.658;23.320;2023-05-07T06:10:01;35;32;
77699;PMS5003;66867;42.658;23.320;2023-05-07T06:11:01;37;34;
77699;PMS5003;66867;42.658;23.320;2023-05-07T06:12:00;33;30;
77699;PMS5003;66867;42.658;23.320;2023-05-07T06:13:00;32;30;
77699;PMS5003;66867;42.658;23.320;2023-05-07T06:14:00;32;31;
77699;PMS5003;66867;42.658;23.320;2023-05-07T06:15:00;32;31;
77699;PMS5003;66867;42.658;23.320;2023-05-07T06:16:00;30;30;
77699;PMS5003;66867;42.658;23.320;2023-05-07T06:17:00;33;31;
77699;PMS5003;66867;42.658;23.320;2023-05-07T06:18:00;33;32;
77699;PMS5003;66867;42.658;23.320;2023-05-07T06:19:00;32;31;
77699;PMS5003;66867;42.658;23.320;2023-05-07T06:20:00;31;30;
77699;PMS5003;66867;42.658;23.320;2023-05-07T06:21:00;33;31;
77699;PMS5003;66867;42.658;23.320;2023-05-07T06:22:00;35;32;
77699;PMS5003;66867;42.658;23.320;2023-05-07T06:23:00;29;29;
77699;PMS5003;66867;42.658;23.320;2023-05-07T06:24:00;28;28;
77699;PMS5003;66867;42.658;23.320;2023-05-07T06:25:00;29;29;
77699;PMS5003;66867;42.658;23.320;2023-05-07T06:26:00;32;30;
77699;PMS5003;66867;42.658;23.320;2023-05-07T06:27:00;33;30;
77699;PMS5003;66867;42.658;23.320;2023-05-07T06:28:00;31;30;
77699;PMS5003;66867;42.658;23.320;2023-05-07T06:29:00;30;27;
77699;PMS5003;66867;42.658;23.320;2023-05-07T06:30:00;28;28;
77699;PMS5003;66867;42.658;23.320;2023-05-07T06:31:11;33;32;